createdAt,value
2019-02-05T00:00:19.110Z,99.99
2019-02-05T00:01:19.095Z,99.99
2019-02-05T00:02:19.084Z,99.99
2019-02-05T00:03:19.076Z,99.99
2019-02-05T00:04:19.061Z,99.99
2019-02-05T00:05:19.051Z,99.99
2019-02-05T00:06:19.041Z,99.99
2019-02-05T00:07:19.021Z,99.99
2019-02-05T00:08:19.010Z,99.99
2019-02-05T00:09:18.999Z,99.99
2019-02-05T00:10:18.988Z,99.99
2019-02-05T00:11:18.980Z,99.99
2019-02-05T00:12:18.968Z,99.99
2019-02-05T00:13:18.949Z,99.99
2019-02-05T00:14:18.938Z,99.99
2019-02-05T00:15:18.930Z,99.99
2019-02-05T00:16:18.916Z,99.99
2019-02-05T00:17:18.901Z,99.99
2019-02-05T00:18:18.889Z,99.99
2019-02-05T00:19:18.871Z,99.99
2019-02-05T00:20:18.858Z,99.99
2019-02-05T00:21:18.846Z,99.99
2019-02-05T00:22:18.835Z,99.99
2019-02-05T00:23:18.830Z,99.99
2019-02-05T00:24:18.812Z,99.99
2019-02-05T00:25:18.804Z,99.99
2019-02-05T00:26:18.792Z,99.99
2019-02-05T00:27:18.775Z,99.99
2019-02-05T00:28:18.762Z,99.99
2019-02-05T00:29:18.753Z,99.99
2019-02-05T00:30:18.741Z,99.99
2019-02-05T00:31:18.724Z,99.99
2019-02-05T00:32:18.711Z,99.99
2019-02-05T00:33:18.699Z,99.99
2019-02-05T00:34:18.684Z,99.99
2019-02-05T00:35:18.677Z,99.99
2019-02-05T00:36:18.663Z,99.99
2019-02-05T00:37:18.653Z,99.99
2019-02-05T00:38:18.641Z,99.99
2019-02-05T00:39:18.624Z,99.99
2019-02-05T00:40:18.621Z,99.99
2019-02-05T00:41:18.596Z,99.99
2019-02-05T00:42:18.587Z,99.99
2019-02-05T00:43:18.577Z,99.99
2019-02-05T00:44:18.563Z,99.99
2019-02-05T00:45:18.547Z,99.99
2019-02-05T00:46:18.535Z,99.99
2019-02-05T00:47:18.528Z,99.99
2019-02-05T00:48:18.513Z,99.99
2019-02-05T00:49:18.504Z,99.99
2019-02-05T00:50:18.492Z,99.99
2019-02-05T00:51:18.475Z,99.99
2019-02-05T00:52:18.463Z,99.99
2019-02-05T00:53:18.449Z,99.99
2019-02-05T00:54:18.436Z,99.99
2019-02-05T00:55:18.429Z,99.99
2019-02-05T00:56:18.417Z,99.99
2019-02-05T00:57:18.404Z,99.99
2019-02-05T00:58:18.392Z,99.99
2019-02-05T00:59:18.371Z,99.99
2019-02-05T01:00:18.361Z,99.99
2019-02-05T01:01:18.353Z,99.99
2019-02-05T01:02:18.339Z,99.99
2019-02-05T01:03:18.324Z,99.99
2019-02-05T01:04:18.308Z,99.99
2019-02-05T01:05:18.301Z,99.99
2019-02-05T01:06:18.288Z,99.99
2019-02-05T01:07:18.279Z,99.99
2019-02-05T01:08:18.267Z,99.99
2019-02-05T01:09:18.255Z,99.99
2019-02-05T01:10:18.244Z,99.99
2019-02-05T01:11:18.226Z,99.99
2019-02-05T01:12:18.212Z,99.99
2019-02-05T01:13:18.198Z,99.99
2019-02-05T01:14:18.185Z,99.99
2019-02-05T01:15:18.179Z,99.99
2019-02-05T01:16:18.165Z,99.99
2019-02-05T01:17:18.148Z,99.99
2019-02-05T01:18:18.137Z,99.99
2019-02-05T01:19:18.127Z,99.99
2019-02-05T01:20:18.115Z,99.99
2019-02-05T01:21:18.105Z,99.99
2019-02-05T01:22:18.095Z,99.99
2019-02-05T01:23:18.076Z,99.99
2019-02-05T01:24:18.065Z,99.99
2019-02-05T01:25:18.051Z,99.99
2019-02-05T01:26:28.634Z,99.99
2019-02-05T01:27:18.031Z,99.99
2019-02-05T01:28:18.022Z,99.99
2019-02-05T01:29:18.002Z,99.99
2019-02-05T01:30:17.992Z,99.99
2019-02-05T01:31:17.974Z,99.99
2019-02-05T01:32:17.961Z,99.99
2019-02-05T01:33:17.953Z,99.99
2019-02-05T01:34:17.949Z,99.99
2019-02-05T01:35:17.924Z,99.99
2019-02-05T01:36:17.912Z,99.99
2019-02-05T01:37:17.902Z,99.99
2019-02-05T01:38:17.890Z,99.99
2019-02-05T01:39:17.883Z,99.99
2019-02-05T01:40:17.870Z,99.99
2019-02-05T01:41:17.857Z,99.99
2019-02-05T01:42:17.847Z,99.99
2019-02-05T01:43:17.829Z,99.99
2019-02-05T01:44:17.816Z,99.99
2019-02-05T01:45:17.800Z,99.99
2019-02-05T01:46:17.790Z,99.99
2019-02-05T01:47:17.781Z,99.99
2019-02-05T01:48:17.768Z,99.99
2019-02-05T01:49:17.751Z,99.99
2019-02-05T01:50:17.741Z,99.99
2019-02-05T01:51:17.730Z,99.99
2019-02-05T01:52:17.718Z,99.99
2019-02-05T01:53:17.708Z,99.99
2019-02-05T01:54:17.696Z,99.99
2019-02-05T01:55:17.680Z,99.99
2019-02-05T01:56:17.665Z,99.99
2019-02-05T01:57:17.654Z,99.99
2019-02-05T01:58:17.643Z,99.99
2019-02-05T01:59:17.636Z,99.99
2019-02-05T02:00:17.621Z,99.99
2019-02-05T02:01:17.606Z,99.99
2019-02-05T02:02:17.595Z,99.99
2019-02-05T02:03:17.578Z,99.99
2019-02-05T02:04:17.565Z,99.99
2019-02-05T02:05:17.561Z,99.99
2019-02-05T02:06:17.545Z,99.99
2019-02-05T02:07:17.532Z,99.99
2019-02-05T02:08:17.515Z,99.99
2019-02-05T02:09:17.506Z,99.99
2019-02-05T02:10:17.495Z,99.99
2019-02-05T02:11:17.486Z,99.99
2019-02-05T02:12:17.472Z,99.99
2019-02-05T02:13:17.461Z,99.99
2019-02-05T02:14:17.449Z,99.99
2019-02-05T02:15:17.433Z,99.99
2019-02-05T02:16:17.419Z,99.99
2019-02-05T02:17:17.406Z,99.99
2019-02-05T02:18:17.393Z,99.99
2019-02-05T02:19:17.384Z,99.99
2019-02-05T02:20:17.373Z,99.99
2019-02-05T02:21:17.355Z,99.99
2019-02-05T02:22:17.344Z,99.99
2019-02-05T02:23:17.335Z,99.99
2019-02-05T02:24:17.323Z,99.99
2019-02-05T02:25:17.311Z,99.99
2019-02-05T02:26:17.299Z,99.99
2019-02-05T02:27:17.282Z,99.99
2019-02-05T02:28:17.272Z,99.99
2019-02-05T02:29:17.258Z,99.99
2019-02-05T02:30:17.249Z,99.99
2019-02-05T02:31:17.239Z,99.99
2019-02-05T02:32:17.225Z,99.99
2019-02-05T02:33:17.215Z,99.99
2019-02-05T02:34:17.204Z,99.99
2019-02-05T02:35:17.186Z,99.99
2019-02-05T02:36:17.174Z,99.99
2019-02-05T02:37:17.162Z,99.99
2019-02-05T02:38:17.149Z,99.99
2019-02-05T02:39:17.132Z,99.99
2019-02-05T02:40:17.118Z,99.99
2019-02-05T02:41:17.110Z,99.99
2019-02-05T02:42:17.095Z,99.99
2019-02-05T02:43:17.094Z,99.99
2019-02-05T02:44:17.075Z,99.99
2019-02-05T02:45:17.062Z,99.99
2019-02-05T02:46:17.048Z,99.99
2019-02-05T02:47:17.032Z,99.99
2019-02-05T02:48:17.019Z,99.99
2019-02-05T02:49:17.009Z,99.99
2019-02-05T02:50:16.998Z,99.99
2019-02-05T02:51:16.989Z,99.99
2019-02-05T02:52:16.980Z,99.99
2019-02-05T02:53:16.959Z,99.99
2019-02-05T02:54:16.947Z,99.99
2019-02-05T02:55:16.939Z,99.99
2019-02-05T02:56:16.926Z,99.99
2019-02-05T02:57:16.913Z,99.99
2019-02-05T02:58:16.899Z,99.99
2019-02-05T02:59:16.883Z,99.99
2019-02-05T03:00:16.870Z,99.99
2019-02-05T03:01:16.858Z,99.99
2019-02-05T03:02:16.846Z,99.99
2019-02-05T03:03:16.838Z,99.99
2019-02-05T03:04:16.824Z,99.99
2019-02-05T03:05:16.815Z,99.99
2019-02-05T03:06:16.802Z,99.99
2019-02-05T03:07:16.786Z,99.99
2019-02-05T03:08:16.774Z,99.99
2019-02-05T03:09:16.765Z,99.99
2019-02-05T03:10:16.752Z,99.99
2019-02-05T03:11:16.735Z,99.99
2019-02-05T03:12:16.721Z,99.99
2019-02-05T03:13:16.708Z,99.99
2019-02-05T03:14:16.697Z,99.99
2019-02-05T03:15:16.689Z,99.99
2019-02-05T03:16:16.677Z,99.99
2019-02-05T03:17:16.663Z,99.99
2019-02-05T03:18:16.650Z,99.99
2019-02-05T03:19:16.634Z,99.99
2019-02-05T03:20:16.620Z,99.99
2019-02-05T03:21:16.612Z,99.99
2019-02-05T03:22:16.600Z,99.99
2019-02-05T03:23:16.593Z,99.99
2019-02-05T03:24:16.582Z,99.99
2019-02-05T03:25:16.561Z,99.99
2019-02-05T03:26:16.549Z,99.99
2019-02-05T03:27:18.288Z,99.99
2019-02-05T03:28:16.529Z,99.99
2019-02-05T03:29:16.516Z,99.99
2019-02-05T03:30:16.503Z,99.99
2019-02-05T03:31:16.487Z,99.99
2019-02-05T03:32:16.476Z,99.99
2019-02-05T03:33:16.460Z,99.99
2019-02-05T03:34:16.446Z,99.99
2019-02-05T03:35:16.441Z,99.99
2019-02-05T03:36:16.426Z,99.99
2019-02-05T03:37:16.417Z,99.99
2019-02-05T03:38:16.404Z,99.99
2019-02-05T03:39:16.391Z,99.99
2019-02-05T03:40:16.374Z,99.99
2019-02-05T03:41:16.366Z,99.99
2019-02-05T03:42:16.354Z,99.99
2019-02-05T03:43:16.337Z,99.99
2019-02-05T03:44:16.323Z,99.99
2019-02-05T03:45:16.326Z,99.99
2019-02-05T03:46:16.297Z,99.99
2019-02-05T03:47:16.293Z,99.99
2019-02-05T03:48:16.277Z,99.99
2019-02-05T03:49:16.267Z,99.99
2019-02-05T03:50:16.253Z,99.99
2019-02-05T03:51:16.237Z,99.99
2019-02-05T03:52:16.224Z,99.99
2019-02-05T03:53:16.210Z,99.99
2019-02-05T03:54:16.197Z,99.99
2019-02-05T03:55:16.192Z,99.99
2019-02-05T03:56:16.176Z,99.99
2019-02-05T03:57:16.158Z,99.99
2019-02-05T03:58:16.149Z,99.99
2019-02-05T03:59:16.139Z,99.99
2019-02-05T04:00:16.127Z,99.99
2019-02-05T04:01:16.117Z,99.99
2019-02-05T04:02:16.104Z,99.99
2019-02-05T04:03:16.172Z,99.99
2019-02-05T04:04:16.076Z,99.99
2019-02-05T04:05:16.061Z,99.99
2019-02-05T04:06:16.049Z,99.99
2019-02-05T04:07:16.044Z,99.99
2019-02-05T04:08:16.033Z,99.99
2019-02-05T04:09:16.014Z,99.99
2019-02-05T04:10:16.000Z,99.99
2019-02-05T04:11:15.982Z,99.99
2019-02-05T04:12:15.970Z,99.99
2019-02-05T04:13:16.030Z,99.99
2019-02-05T04:14:15.950Z,99.99
2019-02-05T04:15:15.946Z,99.99
2019-02-05T04:16:15.920Z,99.99
2019-02-05T04:17:15.911Z,99.99
2019-02-05T04:18:15.897Z,99.99
2019-02-05T04:19:15.890Z,99.99
2019-02-05T04:20:15.876Z,99.99
2019-02-05T04:21:15.865Z,99.99
2019-02-05T04:22:15.853Z,99.99
2019-02-05T04:23:15.837Z,99.99
2019-02-05T04:24:15.821Z,99.99
2019-02-05T04:25:15.807Z,99.99
2019-02-05T04:26:15.798Z,99.99
2019-02-05T04:27:15.789Z,99.99
2019-02-05T04:28:15.773Z,99.99
2019-02-05T04:29:15.757Z,99.99
2019-02-05T04:30:15.745Z,99.99
2019-02-05T04:31:15.737Z,99.99
2019-02-05T04:32:15.727Z,99.99
2019-02-05T04:33:15.714Z,99.99
2019-02-05T04:34:15.701Z,99.99
2019-02-05T04:35:15.688Z,99.99
2019-02-05T04:36:15.674Z,99.99
2019-02-05T04:37:15.659Z,99.99
2019-02-05T04:38:15.648Z,99.99
2019-02-05T04:39:15.639Z,99.99
2019-02-05T04:40:15.628Z,99.99
2019-02-05T04:41:15.610Z,99.99
2019-02-05T04:42:15.601Z,99.99
2019-02-05T04:43:15.583Z,99.99
2019-02-05T04:44:15.568Z,99.99
2019-02-05T04:45:15.563Z,99.99
2019-02-05T04:46:15.550Z,99.99
2019-02-05T04:47:15.533Z,99.99
2019-02-05T04:48:15.519Z,99.99
2019-02-05T04:49:15.509Z,99.99
2019-02-05T04:50:15.496Z,99.99
2019-02-05T04:51:15.487Z,99.99
2019-02-05T04:52:15.477Z,99.99
2019-02-05T04:53:15.463Z,99.99
2019-02-05T04:54:15.459Z,99.99
2019-02-05T04:55:15.432Z,99.99
2019-02-05T04:56:15.420Z,99.99
2019-02-05T04:57:15.412Z,99.99
2019-02-05T04:58:15.396Z,99.99
2019-02-05T04:59:15.393Z,99.99
2019-02-05T05:00:15.375Z,99.99
2019-02-05T05:01:15.358Z,99.99
2019-02-05T05:02:15.347Z,99.99
2019-02-05T05:03:15.340Z,99.99
2019-02-05T05:04:15.325Z,99.99
2019-02-05T05:05:15.314Z,99.99
2019-02-05T05:06:15.299Z,99.99
2019-02-05T05:07:15.281Z,99.99
2019-02-05T05:08:15.270Z,99.99
2019-02-05T05:09:15.280Z,99.99
2019-02-05T05:10:15.245Z,99.99
2019-02-05T05:11:15.239Z,99.99
2019-02-05T05:12:15.223Z,99.99
2019-02-05T05:13:15.225Z,99.99
2019-02-05T05:14:15.201Z,99.99
2019-02-05T05:15:15.187Z,99.99
2019-02-05T05:16:15.171Z,99.99
2019-02-05T05:17:15.165Z,99.99
2019-02-05T05:18:15.665Z,99.99
2019-02-05T05:19:15.134Z,99.99
2019-02-05T05:20:15.129Z,99.99
2019-02-05T05:21:15.108Z,99.99
2019-02-05T05:22:15.112Z,99.99
2019-02-05T05:23:15.087Z,99.99
2019-02-05T05:24:15.076Z,99.99
2019-02-05T05:25:15.062Z,99.99
2019-02-05T05:26:15.051Z,99.99
2019-02-05T05:27:15.035Z,99.99
2019-02-05T05:28:15.020Z,99.99
2019-02-05T05:29:15.011Z,99.99
2019-02-05T05:30:15.000Z,99.99
2019-02-05T05:31:14.993Z,99.99
2019-02-05T05:32:14.976Z,99.99
2019-02-05T05:33:14.960Z,99.99
2019-02-05T05:34:14.947Z,99.99
2019-02-05T05:35:14.944Z,99.99
2019-02-05T05:36:14.930Z,99.99
2019-02-05T05:37:14.914Z,99.99
2019-02-05T05:38:14.901Z,99.99
2019-02-05T05:39:14.884Z,99.99
2019-02-05T05:40:14.871Z,99.99
2019-02-05T05:41:14.860Z,99.99
2019-02-05T05:42:14.846Z,99.99
2019-02-05T05:43:14.840Z,99.99
2019-02-05T05:44:14.825Z,99.99
2019-02-05T05:45:14.820Z,99.99
2019-02-05T05:46:14.804Z,99.99
2019-02-05T05:47:14.789Z,99.99
2019-02-05T05:48:14.775Z,99.99
2019-02-05T05:49:14.767Z,99.99
2019-02-05T05:50:14.757Z,99.99
2019-02-05T05:51:14.740Z,99.99
2019-02-05T05:52:14.726Z,99.99
2019-02-05T05:53:14.710Z,99.99
2019-02-05T05:54:14.701Z,99.99
2019-02-05T05:55:14.692Z,99.99
2019-02-05T05:56:14.680Z,99.99
2019-02-05T05:57:14.664Z,99.99
2019-02-05T05:58:22.257Z,99.99
2019-02-05T05:59:14.645Z,99.99
2019-02-05T06:00:14.632Z,99.99
2019-02-05T06:01:14.616Z,99.99
2019-02-05T06:02:14.608Z,99.99
2019-02-05T06:03:14.589Z,99.99
2019-02-05T06:04:14.576Z,99.99
2019-02-05T06:05:14.568Z,99.99
2019-02-05T06:06:14.556Z,99.99
2019-02-05T06:07:14.544Z,99.99
2019-02-05T06:08:14.525Z,99.99
2019-02-05T06:09:14.517Z,99.99
2019-02-05T06:10:14.504Z,99.99
2019-02-05T06:11:14.499Z,99.99
2019-02-05T06:12:14.484Z,99.99
2019-02-05T06:13:14.473Z,99.99
2019-02-05T06:14:14.460Z,99.99
2019-02-05T06:15:14.445Z,99.99
2019-02-05T06:16:14.433Z,99.99
2019-02-05T06:17:14.416Z,99.99
2019-02-05T06:18:14.404Z,99.99
2019-02-05T06:19:14.398Z,99.99
2019-02-05T06:20:14.385Z,99.99
2019-02-05T06:21:14.370Z,99.99
2019-02-05T06:22:14.358Z,99.99
2019-02-05T06:23:14.351Z,99.99
2019-02-05T06:24:14.337Z,99.99
2019-02-05T06:25:14.329Z,99.99
2019-02-05T06:26:14.315Z,99.99
2019-02-05T06:27:14.299Z,99.99
2019-02-05T06:28:14.287Z,99.99
2019-02-05T06:29:14.273Z,99.99
2019-02-05T06:30:14.262Z,99.99
2019-02-05T06:31:14.253Z,99.99
2019-02-05T06:32:14.241Z,99.99
2019-02-05T06:33:14.227Z,99.99
2019-02-05T06:34:14.215Z,99.99
2019-02-05T06:35:14.204Z,99.99
2019-02-05T06:36:14.185Z,99.99
2019-02-05T06:37:14.181Z,99.99
2019-02-05T06:38:14.167Z,99.99
2019-02-05T06:39:14.154Z,99.99
2019-02-05T06:40:14.138Z,99.99
2019-02-05T06:41:14.128Z,99.99
2019-02-05T06:42:14.119Z,99.99
2019-02-05T06:43:14.108Z,99.99
2019-02-05T06:44:14.095Z,99.99
2019-02-05T06:45:14.085Z,99.99
2019-02-05T06:46:14.071Z,99.99
2019-02-05T06:47:14.055Z,99.99
2019-02-05T06:48:14.047Z,99.99
2019-02-05T06:49:14.028Z,99.99
2019-02-05T06:50:14.021Z,99.99
2019-02-05T06:51:14.010Z,99.99
2019-02-05T06:52:13.997Z,99.99
2019-02-05T06:53:14.039Z,99.99
2019-02-05T06:54:13.969Z,99.99
2019-02-05T06:55:13.961Z,99.99
2019-02-05T06:56:13.951Z,99.99
2019-02-05T06:57:13.937Z,99.99
2019-02-05T06:58:13.926Z,99.99
2019-02-05T06:59:13.911Z,99.99
2019-02-05T07:00:13.904Z,99.99
2019-02-05T07:01:13.883Z,99.99
2019-02-05T07:02:13.871Z,99.99
2019-02-05T07:03:13.867Z,99.99
2019-02-05T07:04:13.851Z,99.99
2019-02-05T07:05:13.853Z,99.99
2019-02-05T07:06:13.844Z,99.99
2019-02-05T07:07:13.827Z,99.99
2019-02-05T07:08:13.811Z,99.99
2019-02-05T07:09:13.804Z,99.99
2019-02-05T07:10:13.792Z,99.99
2019-02-05T07:11:13.776Z,99.99
2019-02-05T07:12:13.764Z,99.99
2019-02-05T07:13:13.751Z,99.99
2019-02-05T07:14:13.738Z,99.99
2019-02-05T07:15:13.731Z,99.99
2019-02-05T07:16:13.718Z,99.99
2019-02-05T07:17:13.707Z,99.99
2019-02-05T07:18:13.694Z,99.99
2019-02-05T07:19:13.680Z,99.99
2019-02-05T07:20:13.666Z,99.99
2019-02-05T07:21:13.656Z,99.99
2019-02-05T07:22:13.644Z,99.99
2019-02-05T07:23:13.636Z,99.99
2019-02-05T07:24:13.623Z,99.99
2019-02-05T07:25:13.609Z,99.99
2019-02-05T07:26:13.613Z,99.99
2019-02-05T07:27:13.589Z,99.99
2019-02-05T07:28:13.577Z,99.99
2019-02-05T07:29:13.564Z,99.99
2019-02-05T07:30:13.552Z,99.99
2019-02-05T07:31:13.534Z,99.99
2019-02-05T07:32:13.521Z,99.99
2019-02-05T07:33:13.515Z,99.99
2019-02-05T07:34:13.499Z,99.99
2019-02-05T07:35:13.492Z,99.99
2019-02-05T07:36:13.479Z,99.99
2019-02-05T07:37:13.470Z,99.99
2019-02-05T07:38:13.458Z,99.99
2019-02-05T07:39:13.442Z,99.99
2019-02-05T07:40:13.431Z,99.99
2019-02-05T07:41:13.421Z,99.99
2019-02-05T07:42:13.410Z,99.99
2019-02-05T07:43:13.394Z,99.99
2019-02-05T07:44:13.382Z,99.99
2019-02-05T07:45:13.369Z,99.99
2019-02-05T07:46:13.355Z,99.99
2019-02-05T07:47:13.349Z,99.99
2019-02-05T07:48:13.339Z,99.99
2019-02-05T07:49:13.327Z,99.99
2019-02-05T07:50:15.513Z,99.99
2019-02-05T07:51:13.296Z,99.99
2019-02-05T07:52:13.379Z,99.99
2019-02-05T07:53:13.277Z,99.99
2019-02-05T07:54:13.265Z,99.99
2019-02-05T07:55:13.260Z,99.99
2019-02-05T07:56:13.244Z,99.99
2019-02-05T07:57:13.228Z,99.99
2019-02-05T07:58:13.216Z,99.99
2019-02-05T07:59:13.211Z,99.99
2019-02-05T08:00:13.197Z,99.99
2019-02-05T08:01:13.185Z,99.99
2019-02-05T08:02:13.172Z,99.99
2019-02-05T08:03:13.158Z,99.99
2019-02-05T08:04:13.142Z,99.99
2019-02-05T08:05:13.134Z,99.99
2019-02-05T08:06:13.123Z,99.99
2019-02-05T08:07:13.116Z,99.99
2019-02-05T08:08:13.104Z,99.99
2019-02-05T08:09:13.089Z,99.99
2019-02-05T08:10:13.077Z,99.99
2019-02-05T08:11:13.061Z,99.99
2019-02-05T08:12:13.048Z,99.99
2019-02-05T08:13:13.044Z,99.99
2019-02-05T08:14:13.031Z,99.99
2019-02-05T08:15:13.015Z,99.99
2019-02-05T08:16:13.002Z,99.99
2019-02-05T08:17:12.994Z,99.99
2019-02-05T08:18:12.984Z,99.99
2019-02-05T08:19:12.975Z,99.99
2019-02-05T08:20:12.961Z,99.99
2019-02-05T08:21:12.953Z,99.99
2019-02-05T08:22:12.939Z,99.99
2019-02-05T08:23:12.926Z,99.99
2019-02-05T08:24:12.912Z,99.99
2019-02-05T08:25:12.898Z,99.99
2019-02-05T08:26:12.886Z,99.99
2019-02-05T08:27:12.879Z,99.99
2019-02-05T08:28:12.867Z,99.99
2019-02-05T08:29:21.445Z,99.99
2019-02-05T08:30:12.841Z,99.99
2019-02-05T08:31:12.833Z,99.99
2019-02-05T08:32:12.820Z,99.99
2019-02-05T08:33:12.811Z,99.99
2019-02-05T08:34:12.801Z,99.99
2019-02-05T08:35:12.787Z,99.99
2019-02-05T08:36:12.772Z,99.99
2019-02-05T08:37:12.761Z,99.99
2019-02-05T08:38:12.751Z,99.99
2019-02-05T08:39:12.743Z,99.99
2019-02-05T08:40:12.729Z,99.99
2019-02-05T08:41:12.719Z,99.99
2019-02-05T08:42:12.706Z,99.99
2019-02-05T08:43:12.689Z,99.99
2019-02-05T08:44:12.677Z,99.99
2019-02-05T08:45:14.308Z,99.99
2019-02-05T08:46:12.660Z,99.99
2019-02-05T08:47:12.645Z,99.99
2019-02-05T08:48:12.632Z,99.99
2019-02-05T08:49:12.623Z,99.99
2019-02-05T08:50:12.613Z,99.99
2019-02-05T08:51:12.605Z,99.99
2019-02-05T08:52:12.593Z,99.99
2019-02-05T08:53:12.583Z,99.99
2019-02-05T08:54:12.572Z,99.99
2019-02-05T08:55:12.557Z,99.99
2019-02-05T08:56:12.543Z,99.99
2019-02-05T08:57:12.532Z,99.99
2019-02-05T08:58:12.518Z,99.99
2019-02-05T08:59:12.512Z,99.99
2019-02-05T09:00:12.502Z,99.99
2019-02-05T09:01:14.510Z,99.99
2019-02-05T09:02:12.474Z,99.99
2019-02-05T09:03:12.471Z,99.99
2019-02-05T09:04:12.457Z,99.99
2019-02-05T09:05:12.447Z,99.99
2019-02-05T09:06:12.436Z,99.99
2019-02-05T09:07:12.420Z,99.99
2019-02-05T09:08:12.409Z,99.99
2019-02-05T09:09:12.396Z,99.99
2019-02-05T09:10:12.384Z,99.99
2019-02-05T09:11:12.379Z,99.99
2019-02-05T09:12:12.367Z,99.99
2019-02-05T09:13:12.358Z,99.99
2019-02-05T09:14:12.932Z,99.99
2019-02-05T09:15:12.332Z,99.99
2019-02-05T09:16:12.321Z,99.99
2019-02-05T09:17:12.314Z,99.99
2019-02-05T09:18:12.302Z,99.99
2019-02-05T09:19:12.286Z,99.99
2019-02-05T09:20:12.275Z,99.99
2019-02-05T09:21:12.262Z,99.99
2019-02-05T09:22:12.252Z,99.99
2019-02-05T09:23:14.357Z,99.99
2019-02-05T09:24:12.233Z,99.99
2019-02-05T09:25:12.221Z,99.99
2019-02-05T09:26:12.211Z,99.99
2019-02-05T09:27:12.195Z,99.99
2019-02-05T09:28:12.182Z,99.99
2019-02-05T09:29:12.175Z,99.99
2019-02-05T09:30:12.164Z,99.99
2019-02-05T09:31:12.157Z,99.99
2019-02-05T09:32:12.146Z,99.99
2019-02-05T09:33:12.131Z,99.99
2019-02-05T09:34:12.120Z,99.99
2019-02-05T09:35:12.114Z,99.99
2019-02-05T09:36:12.102Z,99.99
2019-02-05T09:37:12.088Z,99.99
2019-02-05T09:38:12.077Z,99.99
2019-02-05T09:39:12.068Z,99.99
2019-02-05T09:40:12.050Z,99.99
2019-02-05T09:41:12.039Z,99.99
2019-02-05T09:42:12.027Z,99.99
2019-02-05T09:43:12.022Z,99.99
2019-02-05T09:44:12.010Z,99.99
2019-02-05T09:45:12.002Z,99.99
2019-02-05T09:46:11.992Z,99.99
2019-02-05T09:47:11.978Z,99.99
2019-02-05T09:48:11.964Z,99.99
2019-02-05T09:49:11.958Z,99.99
2019-02-05T09:50:11.951Z,99.99
2019-02-05T09:51:11.933Z,99.99
2019-02-05T09:52:11.921Z,99.99
2019-02-05T09:53:11.908Z,99.99
2019-02-05T09:54:11.899Z,99.99
2019-02-05T09:55:11.894Z,99.99
2019-02-05T09:56:11.882Z,99.99
2019-02-05T09:57:11.870Z,99.99
2019-02-05T09:58:11.862Z,99.99
2019-02-05T09:59:11.847Z,99.99
2019-02-05T10:00:11.834Z,99.99
2019-02-05T10:01:11.829Z,99.99
2019-02-05T10:02:11.817Z,99.99
2019-02-05T10:03:11.812Z,99.99
2019-02-05T10:04:11.800Z,99.99
2019-02-05T10:05:11.786Z,99.99
2019-02-05T10:06:11.775Z,99.99
2019-02-05T10:07:11.769Z,99.99
2019-02-05T10:08:11.757Z,99.99
2019-02-05T10:09:11.746Z,99.99
2019-02-05T10:10:11.784Z,99.99
2019-02-05T10:11:11.722Z,99.99
2019-02-05T10:12:11.709Z,99.99
2019-02-05T10:13:11.701Z,99.99
2019-02-05T10:14:11.690Z,99.99
2019-02-05T10:15:11.687Z,99.99
2019-02-05T10:16:11.674Z,99.99
2019-02-05T10:17:11.665Z,99.99
2019-02-05T10:18:11.654Z,99.99
2019-02-05T10:19:11.647Z,99.99
2019-02-05T10:20:11.631Z,99.99
2019-02-05T10:21:11.625Z,99.99
2019-02-05T10:22:11.617Z,99.99
2019-02-05T10:23:11.601Z,99.99
2019-02-05T10:24:11.589Z,99.99
2019-02-05T10:25:11.579Z,99.99
2019-02-05T10:26:11.568Z,99.99
2019-02-05T10:27:11.562Z,99.99
2019-02-05T10:28:11.550Z,99.99
2019-02-05T10:29:11.542Z,99.99
2019-02-05T10:30:11.533Z,99.99
2019-02-05T10:31:11.516Z,99.99
2019-02-05T10:32:11.507Z,99.99
2019-02-05T10:33:11.498Z,99.99
2019-02-05T10:34:11.492Z,99.99
2019-02-05T10:35:11.482Z,99.99
2019-02-05T10:36:11.473Z,99.99
2019-02-05T10:37:11.459Z,99.99
2019-02-05T10:38:11.447Z,99.99
2019-02-05T10:39:11.444Z,99.99
2019-02-05T10:40:11.431Z,99.99
2019-02-05T10:41:11.419Z,99.99
2019-02-05T10:42:11.410Z,99.99
2019-02-05T10:43:11.396Z,99.99
2019-02-05T10:44:11.384Z,99.99
2019-02-05T10:45:11.376Z,99.99
2019-02-05T10:46:11.366Z,99.99
2019-02-05T10:47:11.360Z,99.99
2019-02-05T10:48:11.349Z,99.99
2019-02-05T10:49:11.342Z,99.99
2019-02-05T10:50:11.331Z,99.99
2019-02-05T10:51:11.317Z,99.99
2019-02-05T10:52:11.344Z,99.99
2019-02-05T10:53:11.305Z,99.99
2019-02-05T10:54:11.293Z,99.99
2019-02-05T10:55:11.277Z,99.99
2019-02-05T10:56:11.267Z,99.99
2019-02-05T10:57:11.255Z,99.99
2019-02-05T10:58:11.245Z,99.99
2019-02-05T10:59:11.240Z,99.99
2019-02-05T11:00:11.230Z,99.99
2019-02-05T11:01:11.220Z,99.99
2019-02-05T11:02:11.211Z,99.99
2019-02-05T11:03:11.196Z,99.99
2019-02-05T11:04:11.186Z,99.99
2019-02-05T11:05:11.178Z,99.99
2019-02-05T11:06:11.169Z,99.99
2019-02-05T11:07:11.164Z,99.99
2019-02-05T11:08:11.154Z,99.99
2019-02-05T11:09:11.139Z,99.99
2019-02-05T11:10:11.130Z,99.99
2019-02-05T11:11:11.126Z,99.99
2019-02-05T11:12:11.115Z,99.99
2019-02-05T11:13:11.102Z,99.99
2019-02-05T11:14:11.093Z,99.99
2019-02-05T11:15:11.082Z,99.99
2019-02-05T11:16:11.069Z,99.99
2019-02-05T11:17:11.061Z,99.99
2019-02-05T11:18:11.051Z,99.99
2019-02-05T11:19:11.046Z,99.99
2019-02-05T11:20:11.036Z,99.99
2019-02-05T11:21:11.024Z,99.99
2019-02-05T11:22:11.016Z,99.99
2019-02-05T11:23:11.000Z,99.99
2019-02-05T11:24:10.989Z,99.99
2019-02-05T11:25:10.986Z,99.99
2019-02-05T11:26:10.977Z,99.99
2019-02-05T11:27:10.964Z,99.99
2019-02-05T11:28:10.951Z,99.99
2019-02-05T11:29:10.945Z,99.99
2019-02-05T11:30:20.034Z,99.99
2019-02-05T11:31:10.929Z,99.99
2019-02-05T11:32:10.920Z,99.99
2019-02-05T11:33:10.910Z,99.99
2019-02-05T11:34:10.904Z,99.99
2019-02-05T11:35:10.900Z,99.99
2019-02-05T11:36:10.880Z,99.99
2019-02-05T11:37:10.866Z,99.99
2019-02-05T11:38:10.855Z,99.99
2019-02-05T11:39:10.853Z,99.99
2019-02-05T11:40:10.841Z,99.99
2019-02-05T11:41:13.529Z,99.99
2019-02-05T11:42:10.815Z,99.99
2019-02-05T11:43:10.813Z,99.99
2019-02-05T11:44:10.800Z,99.99
2019-02-05T11:45:10.793Z,99.99
2019-02-05T11:46:10.784Z,99.99
2019-02-05T11:47:10.772Z,99.99
2019-02-05T11:48:10.762Z,99.99
2019-02-05T11:49:10.751Z,99.99
2019-02-05T11:50:10.740Z,99.99
2019-02-05T11:51:10.735Z,99.99
2019-02-05T11:52:10.723Z,99.99
2019-02-05T11:53:10.712Z,99.99
2019-02-05T11:54:10.703Z,99.99
2019-02-05T11:55:10.687Z,99.99
2019-02-05T11:56:10.677Z,99.99
2019-02-05T11:57:10.677Z,99.99
2019-02-05T11:58:10.664Z,99.99
2019-02-05T11:59:10.651Z,99.99
2019-02-05T12:00:10.639Z,99.83
2019-02-05T12:01:10.633Z,99.99
2019-02-05T12:02:10.623Z,99.99
2019-02-05T12:03:10.618Z,99.99
2019-02-05T12:04:10.607Z,99.99
2019-02-05T12:05:10.597Z,99.99
2019-02-05T12:06:10.587Z,99.99
2019-02-05T12:07:10.575Z,99.99
2019-02-05T12:08:10.566Z,99.99
2019-02-05T12:09:10.552Z,99.99
2019-02-05T12:10:10.545Z,99.88
2019-02-05T12:11:10.541Z,99.59
2019-02-05T12:12:10.531Z,99.30
2019-02-05T12:13:10.514Z,98.97
2019-02-05T12:14:10.505Z,99.83
2019-02-05T12:15:10.502Z,99.97
2019-02-05T12:16:10.491Z,99.99
2019-02-05T12:17:10.482Z,99.83
2019-02-05T12:18:10.474Z,99.73
2019-02-05T12:19:10.460Z,99.26
2019-02-05T12:20:10.451Z,99.54
2019-02-05T12:21:10.437Z,99.78
2019-02-05T12:22:10.433Z,99.99
2019-02-05T12:23:10.426Z,99.99
2019-02-05T12:24:10.414Z,99.99
2019-02-05T12:25:10.410Z,99.97
2019-02-05T12:26:10.397Z,99.78
2019-02-05T12:27:10.384Z,99.99
2019-02-05T12:28:10.376Z,99.99
2019-02-05T12:29:10.370Z,99.97
2019-02-05T12:30:10.361Z,99.88
2019-02-05T12:31:10.347Z,99.30
2019-02-05T12:32:10.337Z,99.59
2019-02-05T12:33:10.324Z,99.88
2019-02-05T12:34:10.317Z,99.59
2019-02-05T12:35:10.311Z,99.50
2019-02-05T12:36:10.302Z,99.40
2019-02-05T12:37:10.292Z,99.50
2019-02-05T12:38:10.286Z,99.40
2019-02-05T12:39:10.268Z,99.99
2019-02-05T12:40:10.259Z,99.50
2019-02-05T12:41:10.251Z,99.30
2019-02-05T12:42:10.243Z,98.64
2019-02-05T12:43:10.239Z,98.83
2019-02-05T12:44:10.228Z,99.59
2019-02-05T12:45:10.216Z,99.26
2019-02-05T12:46:10.205Z,98.69
2019-02-05T12:47:10.201Z,99.54
2019-02-05T12:48:10.191Z,99.54
2019-02-05T12:49:10.184Z,99.64
2019-02-05T12:50:10.172Z,99.16
2019-02-05T12:51:10.214Z,99.92
2019-02-05T12:52:10.173Z,99.44